sensor_id;sensor_type;location;lat;lon;timestamp;pressure;altitude;pressure_sealevel;temperature;humidity
64066;BME280;50318;54.760;9.408;2023-02-19T00:01:13;101058.09;;;7.46;72.87
64066;BME280;50318;54.760;9.408;2023-02-19T00:03:41;101055.69;;;7.48;72.59
64066;BME280;50318;54.760;9.408;2023-02-19T00:06:09;101060.75;;;7.50;72.34
64066;BME280;50318;54.760;9.408;2023-02-19T00:08:37;101050.16;;;7.52;72.91
64066;BME280;50318;54.760;9.408;2023-02-19T00:11:09;101055.56;;;7.55;72.35
64066;BME280;50318;54.760;9.408;2023-02-19T00:13:41;101059.00;;;7.59;72.95
64066;BME280;50318;54.760;9.408;2023-02-19T00:16:10;101058.59;;;7.61;72.55
64066;BME280;50318;54.760;9.408;2023-02-19T00:18:37;101058.78;;;7.50;73.08
64066;BME280;50318;54.760;9.408;2023-02-19T00:21:03;101058.00;;;7.50;72.88
64066;BME280;50318;54.760;9.408;2023-02-19T00:23:30;101068.78;;;7.57;73.10
64066;BME280;50318;54.760;9.408;2023-02-19T00:26:00;101064.13;;;7.57;73.31
64066;BME280;50318;54.760;9.408;2023-02-19T00:28:26;101059.44;;;7.58;73.07
64066;BME280;50318;54.760;9.408;2023-02-19T00:30:53;101069.44;;;7.64;73.19
64066;BME280;50318;54.760;9.408;2023-02-19T00:33:19;101073.28;;;7.67;73.02
64066;BME280;50318;54.760;9.408;2023-02-19T00:35:45;101072.50;;;7.66;72.86
64066;BME280;50318;54.760;9.408;2023-02-19T00:38:11;101080.00;;;7.62;72.82
64066;BME280;50318;54.760;9.408;2023-02-19T00:40:38;101068.75;;;7.60;73.20
64066;BME280;50318;54.760;9.408;2023-02-19T00:43:04;101075.66;;;7.65;73.13
64066;BME280;50318;54.760;9.408;2023-02-19T00:45:30;101066.06;;;7.57;72.95
64066;BME280;50318;54.760;9.408;2023-02-19T00:47:56;101076.44;;;7.65;73.55
64066;BME280;50318;54.760;9.408;2023-02-19T00:50:23;101072.59;;;7.63;73.09
64066;BME280;50318;54.760;9.408;2023-02-19T00:52:49;101068.44;;;7.55;73.45
64066;BME280;50318;54.760;9.408;2023-02-19T00:55:15;101070.47;;;7.51;72.92
64066;BME280;50318;54.760;9.408;2023-02-19T00:57:41;101059.28;;;7.45;73.37
64066;BME280;50318;54.760;9.408;2023-02-19T01:00:08;101069.50;;;7.61;73.37
64066;BME280;50318;54.760;9.408;2023-02-19T01:02:35;101059.34;;;7.61;73.36
64066;BME280;50318;54.760;9.408;2023-02-19T01:05:01;101067.06;;;7.66;72.84
64066;BME280;50318;54.760;9.408;2023-02-19T01:07:27;101070.53;;;7.67;72.55
64066;BME280;50318;54.760;9.408;2023-02-19T01:09:53;101064.75;;;7.65;73.06
64066;BME280;50318;54.760;9.408;2023-02-19T01:12:19;101077.56;;;7.68;72.88
64066;BME280;50318;54.760;9.408;2023-02-19T01:14:46;101071.88;;;7.59;72.28
64066;BME280;50318;54.760;9.408;2023-02-19T01:17:13;101083.94;;;7.61;72.74
64066;BME280;50318;54.760;9.408;2023-02-19T01:19:39;101082.38;;;7.60;72.76
64066;BME280;50318;54.760;9.408;2023-02-19T01:22:05;101077.47;;;7.52;73.06
64066;BME280;50318;54.760;9.408;2023-02-19T01:24:32;101083.78;;;7.49;72.96
64066;BME280;50318;54.760;9.408;2023-02-19T01:26:58;101083.00;;;7.48;72.69
64066;BME280;50318;54.760;9.408;2023-02-19T01:29:24;101079.50;;;7.48;72.73
64066;BME280;50318;54.760;9.408;2023-02-19T01:31:50;101090.69;;;7.53;72.47
64066;BME280;50318;54.760;9.408;2023-02-19T01:34:16;101089.09;;;7.56;72.89
64066;BME280;50318;54.760;9.408;2023-02-19T01:36:42;101096.81;;;7.61;72.79
64066;BME280;50318;54.760;9.408;2023-02-19T01:39:09;101097.16;;;7.63;73.06
64066;BME280;50318;54.760;9.408;2023-02-19T01:41:38;101086.72;;;7.58;72.14
64066;BME280;50318;54.760;9.408;2023-02-19T01:44:05;101086.84;;;7.51;72.97
64066;BME280;50318;54.760;9.408;2023-02-19T01:46:35;101071.72;;;7.46;72.55
64066;BME280;50318;54.760;9.408;2023-02-19T01:49:09;101074.31;;;7.53;72.95
64066;BME280;50318;54.760;9.408;2023-02-19T01:51:40;101079.31;;;7.58;72.64
64066;BME280;50318;54.760;9.408;2023-02-19T01:54:11;101087.44;;;7.62;72.13
64066;BME280;50318;54.760;9.408;2023-02-19T01:56:41;101078.88;;;7.60;72.72
64066;BME280;50318;54.760;9.408;2023-02-19T01:59:08;101070.75;;;7.56;72.26
64066;BME280;50318;54.760;9.408;2023-02-19T02:01:37;101086.31;;;7.59;72.71
64066;BME280;50318;54.760;9.408;2023-02-19T02:04:05;101084.34;;;7.60;72.11
64066;BME280;50318;54.760;9.408;2023-02-19T02:06:43;101081.19;;;7.61;72.43
64066;BME280;50318;54.760;9.408;2023-02-19T02:09:11;101075.84;;;7.54;71.91
64066;BME280;50318;54.760;9.408;2023-02-19T02:11:42;101070.03;;;7.52;72.25
64066;BME280;50318;54.760;9.408;2023-02-19T02:14:11;101082.44;;;7.57;71.88
64066;BME280;50318;54.760;9.408;2023-02-19T02:24:57;101077.88;;;7.50;72.34
64066;BME280;50318;54.760;9.408;2023-02-19T02:27:52;101076.84;;;7.44;71.85
64066;BME280;50318;54.760;9.408;2023-02-19T02:30:43;101073.75;;;7.42;72.25
64066;BME280;50318;54.760;9.408;2023-02-19T02:35:56;101063.41;;;7.33;72.20
64066;BME280;50318;54.760;9.408;2023-02-19T02:38:27;101064.72;;;7.25;72.33
64066;BME280;50318;54.760;9.408;2023-02-19T02:40:54;101066.59;;;7.28;71.83
64066;BME280;50318;54.760;9.408;2023-02-19T02:43:22;101069.47;;;7.21;72.06
64066;BME280;50318;54.760;9.408;2023-02-19T02:45:48;101080.78;;;7.20;72.33
64066;BME280;50318;54.760;9.408;2023-02-19T02:48:38;101081.63;;;7.17;72.69
64066;BME280;50318;54.760;9.408;2023-02-19T02:53:55;101078.97;;;7.13;72.71
64066;BME280;50318;54.760;9.408;2023-02-19T02:56:24;101082.13;;;7.12;72.81
64066;BME280;50318;54.760;9.408;2023-02-19T02:58:51;101082.06;;;7.15;72.79
64066;BME280;50318;54.760;9.408;2023-02-19T03:01:29;101089.91;;;7.09;72.82
64066;BME280;50318;54.760;9.408;2023-02-19T03:04:07;101100.44;;;7.11;72.71
64066;BME280;50318;54.760;9.408;2023-02-19T03:06:36;101096.22;;;7.06;72.45
64066;BME280;50318;54.760;9.408;2023-02-19T03:11:37;101101.44;;;6.97;72.70
64066;BME280;50318;54.760;9.408;2023-02-19T03:16:36;101089.81;;;6.93;72.84
64066;BME280;50318;54.760;9.408;2023-02-19T03:19:07;101094.22;;;6.87;72.64
64066;BME280;50318;54.760;9.408;2023-02-19T03:22:13;101106.66;;;6.88;72.09
64066;BME280;50318;54.760;9.408;2023-02-19T03:27:57;101115.78;;;6.78;72.68
64066;BME280;50318;54.760;9.408;2023-02-19T03:30:49;101116.66;;;6.71;72.86
64066;BME280;50318;54.760;9.408;2023-02-19T03:33:38;101123.28;;;6.70;72.30
64066;BME280;50318;54.760;9.408;2023-02-19T03:36:34;101132.72;;;6.66;72.15
64066;BME280;50318;54.760;9.408;2023-02-19T03:39:22;101130.84;;;6.59;72.26
64066;BME280;50318;54.760;9.408;2023-02-19T03:44:41;101142.22;;;6.54;72.51
64066;BME280;50318;54.760;9.408;2023-02-19T03:47:25;101130.69;;;6.43;72.96
64066;BME280;50318;54.760;9.408;2023-02-19T03:50:00;101138.53;;;6.41;72.90
64066;BME280;50318;54.760;9.408;2023-02-19T03:55:16;101138.75;;;6.23;73.54
64066;BME280;50318;54.760;9.408;2023-02-19T03:58:06;101153.50;;;6.26;73.65
64066;BME280;50318;54.760;9.408;2023-02-19T04:03:44;101163.56;;;6.29;73.37
64066;BME280;50318;54.760;9.408;2023-02-19T04:06:19;101162.13;;;6.21;73.42
64066;BME280;50318;54.760;9.408;2023-02-19T04:08:50;101169.47;;;6.24;73.30
64066;BME280;50318;54.760;9.408;2023-02-19T04:11:20;101171.13;;;6.18;73.34
64066;BME280;50318;54.760;9.408;2023-02-19T04:14:03;101174.63;;;6.18;73.45
64066;BME280;50318;54.760;9.408;2023-02-19T04:16:33;101178.94;;;6.12;73.55
64066;BME280;50318;54.760;9.408;2023-02-19T04:19:12;101193.34;;;6.12;73.80
64066;BME280;50318;54.760;9.408;2023-02-19T04:21:41;101187.16;;;6.08;74.02
64066;BME280;50318;54.760;9.408;2023-02-19T04:24:13;101179.84;;;6.02;73.88
64066;BME280;50318;54.760;9.408;2023-02-19T04:26:42;101193.69;;;6.14;73.87
64066;BME280;50318;54.760;9.408;2023-02-19T04:29:08;101198.72;;;6.20;73.60
64066;BME280;50318;54.760;9.408;2023-02-19T04:31:35;101201.84;;;6.18;73.53
64066;BME280;50318;54.760;9.408;2023-02-19T04:34:03;101196.00;;;6.20;73.28
64066;BME280;50318;54.760;9.408;2023-02-19T04:36:31;101195.63;;;6.18;72.99
64066;BME280;50318;54.760;9.408;2023-02-19T04:38:57;101208.03;;;6.22;72.94
64066;BME280;50318;54.760;9.408;2023-02-19T04:41:24;101207.31;;;6.18;72.96
64066;BME280;50318;54.760;9.408;2023-02-19T04:43:50;101200.34;;;6.13;72.95
64066;BME280;50318;54.760;9.408;2023-02-19T04:46:16;101205.00;;;6.13;72.67
64066;BME280;50318;54.760;9.408;2023-02-19T04:48:43;101202.72;;;6.08;72.74
64066;BME280;50318;54.760;9.408;2023-02-19T04:51:09;101209.69;;;6.12;72.44
64066;BME280;50318;54.760;9.408;2023-02-19T04:53:36;101216.31;;;6.11;72.55
64066;BME280;50318;54.760;9.408;2023-02-19T04:56:10;101206.69;;;6.03;72.77
64066;BME280;50318;54.760;9.408;2023-02-19T04:58:37;101204.78;;;6.00;72.29
64066;BME280;50318;54.760;9.408;2023-02-19T05:01:04;101212.94;;;6.00;72.81
64066;BME280;50318;54.760;9.408;2023-02-19T05:03:31;101222.25;;;6.03;72.79
64066;BME280;50318;54.760;9.408;2023-02-19T05:06:01;101221.47;;;6.02;72.83
64066;BME280;50318;54.760;9.408;2023-02-19T05:08:27;101225.38;;;6.01;72.80
64066;BME280;50318;54.760;9.408;2023-02-19T05:10:57;101226.16;;;6.02;72.95
64066;BME280;50318;54.760;9.408;2023-02-19T05:13:23;101224.28;;;5.95;72.86
64066;BME280;50318;54.760;9.408;2023-02-19T05:15:54;101227.78;;;5.96;72.93
64066;BME280;50318;54.760;9.408;2023-02-19T05:18:21;101233.28;;;5.92;73.12
64066;BME280;50318;54.760;9.408;2023-02-19T05:20:48;101241.03;;;5.94;73.18
64066;BME280;50318;54.760;9.408;2023-02-19T05:23:14;101247.25;;;5.94;72.84
64066;BME280;50318;54.760;9.408;2023-02-19T05:25:40;101257.28;;;6.01;72.95
64066;BME280;50318;54.760;9.408;2023-02-19T05:28:06;101247.97;;;5.98;72.84
64066;BME280;50318;54.760;9.408;2023-02-19T05:30:34;101245.31;;;5.91;73.00
64066;BME280;50318;54.760;9.408;2023-02-19T05:33:00;101256.94;;;5.99;72.79
64066;BME280;50318;54.760;9.408;2023-02-19T05:35:26;101252.66;;;5.98;73.04
64066;BME280;50318;54.760;9.408;2023-02-19T05:37:52;101265.09;;;5.99;73.18
64066;BME280;50318;54.760;9.408;2023-02-19T05:40:18;101265.47;;;6.01;72.73
64066;BME280;50318;54.760;9.408;2023-02-19T05:42:44;101270.56;;;5.95;72.59
64066;BME280;50318;54.760;9.408;2023-02-19T05:45:11;101277.94;;;5.98;72.87
64066;BME280;50318;54.760;9.408;2023-02-19T05:47:37;101276.44;;;5.94;72.98
64066;BME280;50318;54.760;9.408;2023-02-19T05:50:03;101283.44;;;5.91;72.34
64066;BME280;50318;54.760;9.408;2023-02-19T05:52:29;101295.88;;;5.89;72.40
64066;BME280;50318;54.760;9.408;2023-02-19T05:54:56;101290.16;;;5.76;72.51
64066;BME280;50318;54.760;9.408;2023-02-19T05:57:22;101291.81;;;5.63;72.68
64066;BME280;50318;54.760;9.408;2023-02-19T05:59:48;101287.56;;;5.58;72.89
64066;BME280;50318;54.760;9.408;2023-02-19T06:02:14;101298.44;;;5.62;72.99
64066;BME280;50318;54.760;9.408;2023-02-19T06:04:40;101300.44;;;5.54;72.70
64066;BME280;50318;54.760;9.408;2023-02-19T06:07:07;101300.78;;;5.60;73.23
64066;BME280;50318;54.760;9.408;2023-02-19T06:09:33;101308.53;;;5.65;72.66
64066;BME280;50318;54.760;9.408;2023-02-19T06:11:59;101303.50;;;5.60;72.85
64066;BME280;50318;54.760;9.408;2023-02-19T06:14:26;101310.50;;;5.61;72.90
64066;BME280;50318;54.760;9.408;2023-02-19T06:16:52;101326.09;;;5.57;72.78
64066;BME280;50318;54.760;9.408;2023-02-19T06:19:18;101335.78;;;5.58;72.88
64066;BME280;50318;54.760;9.408;2023-02-19T06:21:45;101335.06;;;5.53;72.68
64066;BME280;50318;54.760;9.408;2023-02-19T06:24:11;101345.13;;;5.57;73.01
64066;BME280;50318;54.760;9.408;2023-02-19T06:26:37;101345.13;;;5.57;72.76
64066;BME280;50318;54.760;9.408;2023-02-19T06:29:03;101344.75;;;5.54;72.75
64066;BME280;50318;54.760;9.408;2023-02-19T06:31:30;101340.53;;;5.46;72.73
64066;BME280;50318;54.760;9.408;2023-02-19T06:33:56;101351.00;;;5.51;72.61
64066;BME280;50318;54.760;9.408;2023-02-19T06:36:23;101350.19;;;5.54;72.83
64066;BME280;50318;54.760;9.408;2023-02-19T06:38:50;101339.38;;;5.47;72.81
64066;BME280;50318;54.760;9.408;2023-02-19T06:41:16;101357.25;;;5.48;72.96
64066;BME280;50318;54.760;9.408;2023-02-19T06:43:42;101353.78;;;5.44;72.73
64066;BME280;50318;54.760;9.408;2023-02-19T06:46:10;101365.00;;;5.53;72.80
64066;BME280;50318;54.760;9.408;2023-02-19T06:48:37;101371.25;;;5.47;72.83
64066;BME280;50318;54.760;9.408;2023-02-19T06:51:04;101368.94;;;5.42;72.98
64066;BME280;50318;54.760;9.408;2023-02-19T06:53:30;101375.91;;;5.46;73.04
64066;BME280;50318;54.760;9.408;2023-02-19T06:56:05;101377.47;;;5.47;73.32
64066;BME280;50318;54.760;9.408;2023-02-19T06:58:32;101374.38;;;5.45;73.50
64066;BME280;50318;54.760;9.408;2023-02-19T07:00:59;101380.59;;;5.46;73.53
64066;BME280;50318;54.760;9.408;2023-02-19T07:03:25;101382.13;;;5.43;73.56
64066;BME280;50318;54.760;9.408;2023-02-19T07:05:51;101392.25;;;5.39;73.62
64066;BME280;50318;54.760;9.408;2023-02-19T07:08:18;101398.47;;;5.43;73.56
64066;BME280;50318;54.760;9.408;2023-02-19T07:10:44;101411.59;;;5.59;73.20
64066;BME280;50318;54.760;9.408;2023-02-19T07:13:10;101409.22;;;5.65;73.17
64066;BME280;50318;54.760;9.408;2023-02-19T07:15:37;101411.56;;;5.70;73.10
64066;BME280;50318;54.760;9.408;2023-02-19T07:18:03;101429.38;;;5.78;73.26
64066;BME280;50318;54.760;9.408;2023-02-19T07:20:29;101439.44;;;5.84;73.11
64066;BME280;50318;54.760;9.408;2023-02-19T07:22:56;101441.34;;;5.91;72.99
64066;BME280;50318;54.760;9.408;2023-02-19T07:25:22;101443.31;;;5.91;72.73
64066;BME280;50318;54.760;9.408;2023-02-19T07:27:48;101438.25;;;5.93;72.46
64066;BME280;50318;54.760;9.408;2023-02-19T07:30:14;101434.75;;;5.85;72.32
64066;BME280;50318;54.760;9.408;2023-02-19T07:32:41;101445.25;;;5.94;72.51
64066;BME280;50318;54.760;9.408;2023-02-19T07:35:07;101450.31;;;5.95;72.21
64066;BME280;50318;54.760;9.408;2023-02-19T07:37:33;101433.19;;;5.88;72.32
64066;BME280;50318;54.760;9.408;2023-02-19T07:40:06;101448.72;;;5.98;72.29
64066;BME280;50318;54.760;9.408;2023-02-19T07:42:33;101464.97;;;6.08;72.09
64066;BME280;50318;54.760;9.408;2023-02-19T07:44:59;101465.31;;;6.18;72.52
64066;BME280;50318;54.760;9.408;2023-02-19T07:47:28;101466.44;;;6.24;72.38
64066;BME280;50318;54.760;9.408;2023-02-19T07:49:55;101463.28;;;6.29;72.37
64066;BME280;50318;54.760;9.408;2023-02-19T07:52:21;101465.94;;;6.36;72.46
64066;BME280;50318;54.760;9.408;2023-02-19T07:54:47;101463.19;;;6.43;72.48
64066;BME280;50318;54.760;9.408;2023-02-19T07:57:13;101466.66;;;6.43;72.02
64066;BME280;50318;54.760;9.408;2023-02-19T07:59:40;101467.31;;;6.58;72.39
64066;BME280;50318;54.760;9.408;2023-02-19T08:02:17;101458.28;;;6.68;72.25
64066;BME280;50318;54.760;9.408;2023-02-19T08:04:46;101475.28;;;6.80;72.21
64066;BME280;50318;54.760;9.408;2023-02-19T08:07:12;101476.00;;;6.87;71.95
64066;BME280;50318;54.760;9.408;2023-02-19T08:09:38;101469.78;;;6.87;71.35
64066;BME280;50318;54.760;9.408;2023-02-19T08:12:04;101480.56;;;6.97;72.17
64066;BME280;50318;54.760;9.408;2023-02-19T08:14:31;101471.16;;;7.02;71.88
64066;BME280;50318;54.760;9.408;2023-02-19T08:16:57;101473.03;;;7.08;71.52
64066;BME280;50318;54.760;9.408;2023-02-19T08:19:23;101473.78;;;7.13;71.57
64066;BME280;50318;54.760;9.408;2023-02-19T08:21:50;101488.22;;;7.09;71.25
64066;BME280;50318;54.760;9.408;2023-02-19T08:24:16;101491.63;;;7.21;71.26
64066;BME280;50318;54.760;9.408;2023-02-19T08:26:42;101486.88;;;7.25;70.89
64066;BME280;50318;54.760;9.408;2023-02-19T08:29:08;101493.53;;;7.24;70.96
64066;BME280;50318;54.760;9.408;2023-02-19T08:31:35;101498.09;;;7.34;71.10
64066;BME280;50318;54.760;9.408;2023-02-19T08:34:01;101522.16;;;7.43;71.04
64066;BME280;50318;54.760;9.408;2023-02-19T08:36:28;101526.09;;;7.42;70.39
64066;BME280;50318;54.760;9.408;2023-02-19T08:38:54;101524.09;;;7.46;70.20
64066;BME280;50318;54.760;9.408;2023-02-19T08:41:20;101530.59;;;7.55;70.06
64066;BME280;50318;54.760;9.408;2023-02-19T08:43:47;101520.22;;;7.43;69.59
64066;BME280;50318;54.760;9.408;2023-02-19T08:46:13;101544.66;;;7.54;69.76
64066;BME280;50318;54.760;9.408;2023-02-19T08:48:40;101537.38;;;7.44;69.67
64066;BME280;50318;54.760;9.408;2023-02-19T08:51:08;101546.13;;;7.62;69.54
64066;BME280;50318;54.760;9.408;2023-02-19T08:53:36;101541.03;;;7.64;69.53
64066;BME280;50318;54.760;9.408;2023-02-19T08:56:05;101548.75;;;7.69;69.14
64066;BME280;50318;54.760;9.408;2023-02-19T08:58:32;101554.59;;;7.71;69.00
64066;BME280;50318;54.760;9.408;2023-02-19T09:00:58;101563.91;;;7.74;68.83
64066;BME280;50318;54.760;9.408;2023-02-19T09:03:27;101567.38;;;7.78;68.72
64066;BME280;50318;54.760;9.408;2023-02-19T09:05:53;101560.72;;;7.79;68.88
64066;BME280;50318;54.760;9.408;2023-02-19T09:08:19;101572.25;;;7.93;68.79
64066;BME280;50318;54.760;9.408;2023-02-19T09:10:56;101555.03;;;7.96;67.79
64066;BME280;50318;54.760;9.408;2023-02-19T09:13:22;101551.84;;;8.01;67.90
64066;BME280;50318;54.760;9.408;2023-02-19T09:15:49;101528.44;;;8.00;68.34
64066;BME280;50318;54.760;9.408;2023-02-19T09:18:15;101547.78;;;8.13;68.10
64066;BME280;50318;54.760;9.408;2023-02-19T09:20:41;101548.34;;;8.28;68.46
64066;BME280;50318;54.760;9.408;2023-02-19T09:23:07;101568.78;;;8.20;67.50
64066;BME280;50318;54.760;9.408;2023-02-19T09:25:33;101566.25;;;8.32;66.40
64066;BME280;50318;54.760;9.408;2023-02-19T09:27:59;101577.19;;;8.36;66.43
64066;BME280;50318;54.760;9.408;2023-02-19T09:30:26;101570.81;;;8.43;66.79
64066;BME280;50318;54.760;9.408;2023-02-19T09:32:52;101587.84;;;8.54;65.97
64066;BME280;50318;54.760;9.408;2023-02-19T09:35:19;101596.41;;;8.56;65.66
64066;BME280;50318;54.760;9.408;2023-02-19T09:37:45;101597.91;;;8.60;65.28
64066;BME280;50318;54.760;9.408;2023-02-19T09:40:12;101590.41;;;8.65;65.10
64066;BME280;50318;54.760;9.408;2023-02-19T09:42:40;101598.69;;;8.61;65.12
64066;BME280;50318;54.760;9.408;2023-02-19T09:45:16;101608.84;;;8.60;64.41
64066;BME280;50318;54.760;9.408;2023-02-19T09:47:45;101619.56;;;8.75;64.77
64066;BME280;50318;54.760;9.408;2023-02-19T09:50:15;101625.69;;;8.82;63.74
64066;BME280;50318;54.760;9.408;2023-02-19T09:52:53;101622.00;;;8.69;62.81
64066;BME280;50318;54.760;9.408;2023-02-19T09:55:34;101625.84;;;8.72;63.68
64066;BME280;50318;54.760;9.408;2023-02-19T09:58:06;101639.88;;;8.74;62.26
64066;BME280;50318;54.760;9.408;2023-02-19T10:00:34;101638.59;;;8.82;63.79
64066;BME280;50318;54.760;9.408;2023-02-19T10:03:10;101656.09;;;8.88;62.72
64066;BME280;50318;54.760;9.408;2023-02-19T10:05:38;101656.81;;;8.92;62.72
64066;BME280;50318;54.760;9.408;2023-02-19T10:08:08;101651.25;;;8.99;63.25
64066;BME280;50318;54.760;9.408;2023-02-19T10:10:37;101642.41;;;8.88;62.49
64066;BME280;50318;54.760;9.408;2023-02-19T10:13:17;101660.72;;;8.91;62.40
64066;BME280;50318;54.760;9.408;2023-02-19T10:15:49;101660.22;;;9.00;62.15
64066;BME280;50318;54.760;9.408;2023-02-19T10:18:18;101661.81;;;8.97;61.68
64066;BME280;50318;54.760;9.408;2023-02-19T10:20:46;101662.53;;;9.01;61.54
64066;BME280;50318;54.760;9.408;2023-02-19T10:23:14;101663.31;;;9.02;60.97
64066;BME280;50318;54.760;9.408;2023-02-19T10:25:48;101661.72;;;9.04;60.83
64066;BME280;50318;54.760;9.408;2023-02-19T10:28:17;101668.66;;;9.09;60.50
64066;BME280;50318;54.760;9.408;2023-02-19T10:30:52;101684.03;;;9.26;60.57
64066;BME280;50318;54.760;9.408;2023-02-19T10:33:19;101679.91;;;9.38;60.53
64066;BME280;50318;54.760;9.408;2023-02-19T10:36:06;101685.66;;;9.47;60.19
64066;BME280;50318;54.760;9.408;2023-02-19T10:38:46;101687.66;;;9.43;60.40
64066;BME280;50318;54.760;9.408;2023-02-19T10:41:18;101694.09;;;9.56;60.57
64066;BME280;50318;54.760;9.408;2023-02-19T10:46:23;101698.22;;;9.64;61.53
64066;BME280;50318;54.760;9.408;2023-02-19T10:48:57;101693.00;;;9.73;61.19
64066;BME280;50318;54.760;9.408;2023-02-19T10:51:34;101706.19;;;9.78;60.61
64066;BME280;50318;54.760;9.408;2023-02-19T10:54:15;101709.66;;;10.02;60.26
64066;BME280;50318;54.760;9.408;2023-02-19T10:56:42;101705.88;;;9.96;59.38
64066;BME280;50318;54.760;9.408;2023-02-19T11:04:20;101706.72;;;10.33;59.12
64066;BME280;50318;54.760;9.408;2023-02-19T11:06:47;101719.25;;;10.34;58.32
64066;BME280;50318;54.760;9.408;2023-02-19T11:09:49;101709.69;;;10.22;56.74
64066;BME280;50318;54.760;9.408;2023-02-19T11:12:24;101714.72;;;10.04;57.01
64066;BME280;50318;54.760;9.408;2023-02-19T11:14:51;101695.09;;;9.85;58.18
64066;BME280;50318;54.760;9.408;2023-02-19T11:17:23;101711.72;;;9.98;58.91
64066;BME280;50318;54.760;9.408;2023-02-19T11:19:55;101709.94;;;10.08;58.09
64066;BME280;50318;54.760;9.408;2023-02-19T11:24:51;101712.38;;;10.26;58.22
64066;BME280;50318;54.760;9.408;2023-02-19T11:27:20;101715.19;;;10.22;57.21
64066;BME280;50318;54.760;9.408;2023-02-19T11:29:47;101714.16;;;10.12;56.55
64066;BME280;50318;54.760;9.408;2023-02-19T11:32:21;101713.25;;;10.19;56.76
64066;BME280;50318;54.760;9.408;2023-02-19T11:34:48;101706.59;;;10.20;57.25
64066;BME280;50318;54.760;9.408;2023-02-19T11:37:16;101700.03;;;10.14;56.36
64066;BME280;50318;54.760;9.408;2023-02-19T11:39:45;101705.22;;;10.08;55.88
64066;BME280;50318;54.760;9.408;2023-02-19T11:56:15;101711.59;;;10.25;55.89
64066;BME280;50318;54.760;9.408;2023-02-19T11:59:02;101734.16;;;10.33;55.85
64066;BME280;50318;54.760;9.408;2023-02-19T12:06:51;101729.31;;;10.21;54.61
64066;BME280;50318;54.760;9.408;2023-02-19T12:28:28;101713.09;;;9.87;52.48
64066;BME280;50318;54.760;9.408;2023-02-19T12:31:33;101717.94;;;9.79;52.86
64066;BME280;50318;54.760;9.408;2023-02-19T12:34:56;101717.53;;;10.00;54.01
64066;BME280;50318;54.760;9.408;2023-02-19T12:38:06;101709.03;;;9.95;53.88
64066;BME280;50318;54.760;9.408;2023-02-19T12:43:08;101706.56;;;10.00;53.76
64066;BME280;50318;54.760;9.408;2023-02-19T12:51:22;101713.34;;;10.35;53.75
64066;BME280;50318;54.760;9.408;2023-02-19T12:56:51;101701.66;;;10.51;53.79
64066;BME280;50318;54.760;9.408;2023-02-19T12:59:32;101698.28;;;10.43;53.50
64066;BME280;50318;54.760;9.408;2023-02-19T13:05:05;101700.41;;;10.36;52.50
64066;BME280;50318;54.760;9.408;2023-02-19T13:10:43;101701.53;;;10.19;52.36
64066;BME280;50318;54.760;9.408;2023-02-19T13:13:18;101708.09;;;10.25;52.82
64066;BME280;50318;54.760;9.408;2023-02-19T13:15:49;101709.19;;;10.27;53.09
64066;BME280;50318;54.760;9.408;2023-02-19T13:18:25;101704.41;;;10.31;52.75
64066;BME280;50318;54.760;9.408;2023-02-19T13:20:54;101711.28;;;10.39;52.96
64066;BME280;50318;54.760;9.408;2023-02-19T13:23:27;101704.56;;;10.24;52.69
64066;BME280;50318;54.760;9.408;2023-02-19T13:36:50;101703.88;;;10.16;54.06
64066;BME280;50318;54.760;9.408;2023-02-19T13:39:18;101716.72;;;10.23;53.82
64066;BME280;50318;54.760;9.408;2023-02-19T13:41:50;101707.72;;;10.23;53.91
64066;BME280;50318;54.760;9.408;2023-02-19T13:44:19;101705.41;;;10.21;54.75
64066;BME280;50318;54.760;9.408;2023-02-19T13:46:48;101710.91;;;10.21;54.51
64066;BME280;50318;54.760;9.408;2023-02-19T13:51:58;101706.00;;;10.09;55.31
64066;BME280;50318;54.760;9.408;2023-02-19T13:59:57;101697.09;;;10.05;55.09
64066;BME280;50318;54.760;9.408;2023-02-19T14:02:28;101684.66;;;10.00;54.36
64066;BME280;50318;54.760;9.408;2023-02-19T14:05:05;101690.81;;;10.04;54.44
64066;BME280;50318;54.760;9.408;2023-02-19T14:07:49;101677.19;;;10.01;53.81
64066;BME280;50318;54.760;9.408;2023-02-19T14:10:54;101675.00;;;10.12;54.31
64066;BME280;50318;54.760;9.408;2023-02-19T14:13:59;101667.56;;;10.32;54.78
64066;BME280;50318;54.760;9.408;2023-02-19T14:16:47;101661.88;;;10.43;54.57
64066;BME280;50318;54.760;9.408;2023-02-19T14:19:16;101657.78;;;10.11;55.17
64066;BME280;50318;54.760;9.408;2023-02-19T14:22:01;101642.78;;;10.16;55.59
64066;BME280;50318;54.760;9.408;2023-02-19T14:24:27;101646.63;;;10.22;55.44
64066;BME280;50318;54.760;9.408;2023-02-19T14:26:55;101641.25;;;10.35;55.36
64066;BME280;50318;54.760;9.408;2023-02-19T14:29:22;101645.13;;;10.37;55.56
64066;BME280;50318;54.760;9.408;2023-02-19T14:31:48;101640.75;;;10.40;55.72
64066;BME280;50318;54.760;9.408;2023-02-19T14:34:17;101645.16;;;10.54;56.14
64066;BME280;50318;54.760;9.408;2023-02-19T14:36:45;101641.47;;;10.44;54.93
64066;BME280;50318;54.760;9.408;2023-02-19T14:39:30;101650.19;;;10.39;54.52
64066;BME280;50318;54.760;9.408;2023-02-19T14:42:04;101642.38;;;10.37;55.57
64066;BME280;50318;54.760;9.408;2023-02-19T14:44:55;101648.63;;;10.38;55.53
64066;BME280;50318;54.760;9.408;2023-02-19T14:47:24;101645.13;;;10.37;55.65
64066;BME280;50318;54.760;9.408;2023-02-19T14:49:59;101643.44;;;10.43;55.79
64066;BME280;50318;54.760;9.408;2023-02-19T14:52:31;101644.25;;;10.24;55.96
64066;BME280;50318;54.760;9.408;2023-02-19T14:57:31;101641.16;;;10.22;55.83
64066;BME280;50318;54.760;9.408;2023-02-19T15:00:02;101652.16;;;10.19;55.91
64066;BME280;50318;54.760;9.408;2023-02-19T15:02:31;101651.75;;;10.20;55.96
64066;BME280;50318;54.760;9.408;2023-02-19T15:04:57;101646.97;;;10.04;56.06
64066;BME280;50318;54.760;9.408;2023-02-19T15:07:27;101645.56;;;9.96;56.61
64066;BME280;50318;54.760;9.408;2023-02-19T15:09:57;101665.72;;;10.06;56.83
64066;BME280;50318;54.760;9.408;2023-02-19T15:12:27;101665.09;;;9.78;56.28